Time;durP1;ratioP1;P1;durP2;ratioP2;P2;SDS_P1;SDS_P2;PMS_P1;PMS_P2;Temp;Humidity;BMP_temperature;BMP_pressure;BME280_temperature;BME280_humidity;BME280_pressure;Samples;Min_cycle;Max_cycle;Signal;HPM_P1;HPM_P2
2023/04/10 00:00:07;;;;;;;33.08;25.25;;;;;;;6.47;63.15;99845.25;4482326;31;34267;-82
2023/04/10 00:02:38;;;;;;;31.00;22.55;;;;;;;6.59;62.61;99840.59;4484876;31;33586;-82
2023/04/10 00:05:07;;;;;;;32.45;20.42;;;;;;;6.71;61.91;99840.22;4485141;31;33672;-82
2023/04/10 00:07:34;;;;;;;31.77;23.12;;;;;;;6.60;61.98;99837.22;4480578;31;33942;-83
2023/04/10 00:10:02;;;;;;;31.17;21.85;;;;;;;6.56;62.06;99833.63;4482111;31;33997;-82
2023/04/10 00:12:30;;;;;;;30.90;23.30;;;;;;;6.70;61.63;99833.28;4480472;31;33464;-82
2023/04/10 00:14:58;;;;;;;30.12;22.00;;;;;;;6.58;61.93;99831.09;4480698;32;33842;-82
2023/04/10 00:17:25;;;;;;;30.58;20.90;;;;;;;6.67;61.51;99834.06;4487906;31;35206;-81
2023/04/10 00:19:52;;;;;;;30.98;23.40;;;;;;;6.77;61.14;99831.00;4481357;31;33718;-82
2023/04/10 00:22:20;;;;;;;28.27;21.08;;;;;;;6.35;61.98;99825.06;4488949;31;33841;-82
2023/04/10 00:24:47;;;;;;;32.20;22.35;;;;;;;6.40;61.89;99822.66;4482018;31;33933;-82
2023/04/10 00:27:15;;;;;;;31.65;24.40;;;;;;;6.43;61.98;99817.63;4483972;31;34952;-82
2023/04/10 00:29:43;;;;;;;34.75;25.80;;;;;;;6.12;64.00;99821.53;4480030;31;33969;-82
2023/04/10 00:32:10;;;;;;;30.33;20.70;;;;;;;6.21;63.34;99816.78;4480678;32;32094;-82
2023/04/10 00:34:37;;;;;;;29.52;22.60;;;;;;;6.23;63.72;99820.28;4481936;31;33879;-82
2023/04/10 00:37:06;;;;;;;31.77;23.80;;;;;;;6.32;63.10;99815.50;4482519;31;34827;-82
2023/04/10 00:39:33;;;;;;;30.75;22.65;;;;;;;6.50;62.32;99814.47;4486168;31;34059;-81
2023/04/10 00:42:01;;;;;;;33.10;23.42;;;;;;;6.47;62.34;99816.94;4483542;31;34232;-82
2023/04/10 00:44:29;;;;;;;28.95;22.40;;;;;;;6.40;62.33;99813.22;4483539;31;34663;-83
2023/04/10 00:46:56;;;;;;;28.62;22.02;;;;;;;6.40;61.94;99820.94;4483436;31;34027;-82
2023/04/10 00:49:24;;;;;;;30.10;22.77;;;;;;;6.51;61.34;99816.22;4481780;32;33902;-82
2023/04/10 00:51:53;;;;;;;28.42;22.73;;;;;;;6.24;61.86;99816.88;4481838;32;33199;-82
2023/04/10 00:54:22;;;;;;;30.85;20.62;;;;;;;6.50;61.33;99812.78;4483537;31;34059;-82
2023/04/10 00:56:51;;;;;;;27.83;22.70;;;;;;;6.65;60.94;99819.34;4482013;32;33477;-82
2023/04/10 00:59:20;;;;;;;29.85;22.05;;;;;;;6.17;62.01;99812.31;4490200;31;33617;-82
2023/04/10 01:01:47;;;;;;;28.67;19.12;;;;;;;6.15;62.04;99820.81;4483555;31;33496;-82
2023/04/10 01:04:15;;;;;;;31.42;23.80;;;;;;;6.28;62.13;99817.87;4483300;31;33487;-81
2023/04/10 01:07:08;;;;;;;31.12;22.73;;;;;;;6.05;63.90;99820.41;4484423;31;33818;-83
2023/04/10 01:09:40;;;;;;;29.45;21.87;;;;;;;6.09;64.19;99809.41;4483564;31;32620;-81
2023/04/10 01:12:36;;;;;;;33.80;23.42;;;;;;;5.85;65.32;99811.84;4483543;31;34516;-82
2023/04/10 01:15:22;;;;;;;31.42;23.08;;;;;;;5.96;65.22;99807.19;4462372;31;33692;-82
2023/04/10 01:18:08;;;;;;;28.27;21.65;;;;;;;5.95;64.97;99802.84;4481831;31;33987;-82
2023/04/10 01:20:37;;;;;;;;;;;;;;;5.96;64.66;99806.31;4481757;31;34670;-82
2023/04/10 01:23:29;;;;;;;26.73;18.33;;;;;;;6.00;64.93;99813.34;4483246;31;33773;-82
2023/04/10 01:26:00;;;;;;;27.02;18.17;;;;;;;6.17;64.06;99799.44;4483934;31;34743;-83
2023/04/10 01:28:38;;;;;;;27.20;20.50;;;;;;;6.24;63.65;99795.41;4485650;31;34094;-81
2023/04/10 01:31:08;;;;;;;27.17;17.87;;;;;;;6.21;63.77;99800.44;4483540;31;33999;-81
2023/04/10 01:33:59;;;;;;;26.58;20.15;;;;;;;6.22;64.11;99805.66;4481652;32;34163;-82
2023/04/10 01:36:31;;;;;;;26.17;17.50;;;;;;;6.37;63.67;99799.38;4481738;31;33915;-83
2023/04/10 01:38:59;;;;;;;26.00;19.15;;;;;;;6.19;64.40;99794.38;4469258;31;34758;-82
2023/04/10 01:41:26;;;;;;;27.52;20.42;;;;;;;6.43;63.48;99792.75;4483358;31;33846;-82
2023/04/10 01:43:55;;;;;;;27.30;19.83;;;;;;;6.20;64.35;99796.13;4481214;32;33425;-83
2023/04/10 01:46:23;;;;;;;26.75;19.52;;;;;;;6.27;64.37;99798.13;4481184;31;33651;-83
2023/04/10 01:48:52;;;;;;;25.12;19.30;;;;;;;6.09;64.85;99785.38;4481902;31;34860;-83
2023/04/10 01:51:20;;;;;;;27.15;20.10;;;;;;;6.21;64.73;99790.13;4481801;31;33726;-82
2023/04/10 01:53:49;;;;;;;27.20;19.90;;;;;;;6.20;64.69;99789.25;4487310;31;34458;-82
2023/04/10 01:56:21;;;;;;;24.42;17.40;;;;;;;5.92;65.64;99800.16;4483061;31;33847;-82
2023/04/10 01:58:49;;;;;;;27.00;20.10;;;;;;;6.05;64.57;99801.53;4484355;31;33626;-82
2023/04/10 02:01:19;;;;;;;30.67;21.60;;;;;;;5.95;65.62;99799.41;4486845;31;34134;-80
2023/04/10 02:03:57;;;;;;;32.08;20.95;;;;;;;5.82;66.81;99792.81;4469859;31;33780;-83
2023/04/10 02:06:32;;;;;;;27.23;18.15;;;;;;;5.91;67.24;99798.38;4481243;32;33577;-81
2023/04/10 02:09:27;;;;;;;27.25;20.00;;;;;;;6.28;65.87;99790.44;4483110;32;34179;-82
2023/04/10 02:12:01;;;;;;;28.08;19.73;;;;;;;6.29;64.90;99793.91;4481166;31;34018;-82
2023/04/10 02:14:32;;;;;;;25.88;18.70;;;;;;;5.96;67.19;99788.28;4481587;32;33547;-82
2023/04/10 02:17:00;;;;;;;29.70;21.30;;;;;;;6.29;65.57;99797.38;4483022;31;33833;-83
2023/04/10 02:19:28;;;;;;;25.40;16.90;;;;;;;6.08;66.42;99797.38;4481594;32;33931;-83
2023/04/10 02:21:56;;;;;;;26.27;19.90;;;;;;;6.34;65.50;99797.53;4480592;31;33627;-82
2023/04/10 02:24:25;;;;;;;24.08;16.77;;;;;;;6.33;64.59;99798.38;4481404;32;34310;-82
2023/04/10 02:26:53;;;;;;;24.95;17.92;;;;;;;6.29;64.07;99793.91;4481143;31;33968;-82
2023/04/10 02:29:22;;;;;;;24.77;18.35;;;;;;;6.40;63.93;99796.91;4482832;31;34166;-82
2023/04/10 02:31:49;;;;;;;25.12;16.92;;;;;;;6.36;63.78;99797.59;4482602;31;34697;-83
2023/04/10 02:34:18;;;;;;;26.05;18.92;;;;;;;6.59;62.74;99794.22;4481767;32;33618;-82
2023/04/10 02:36:46;;;;;;;23.52;18.12;;;;;;;6.52;62.81;99787.97;4482739;31;33670;-82
2023/04/10 02:39:13;;;;;;;24.17;18.37;;;;;;;6.51;62.66;99780.16;4488226;31;34262;-82
2023/04/10 02:41:45;;;;;;;25.85;19.33;;;;;;;6.50;62.45;99781.00;4483328;31;34535;-82
2023/04/10 02:44:13;;;;;;;23.80;17.75;;;;;;;6.50;62.17;99784.44;4484525;31;33661;-82
2023/04/10 02:46:42;;;;;;;24.58;16.98;;;;;;;6.30;62.89;99778.53;4475731;31;33053;-82
2023/04/10 02:49:10;;;;;;;24.75;18.52;;;;;;;6.32;62.30;99776.88;4481187;31;34968;-82
2023/04/10 02:51:37;;;;;;;23.15;17.52;;;;;;;6.23;62.74;99779.09;4481458;32;33860;-82
2023/04/10 02:54:05;;;;;;;23.50;17.98;;;;;;;6.39;62.39;99771.97;4482845;31;34613;-83
2023/04/10 02:56:33;;;;;;;25.12;18.45;;;;;;;6.44;62.17;99773.00;4482680;31;34036;-81
2023/04/10 02:59:02;;;;;;;26.27;18.00;;;;;;;6.37;62.51;99771.91;4487522;31;34925;-82
2023/04/10 03:01:30;;;;;;;24.87;18.33;;;;;;;6.17;63.10;99768.53;4486655;31;34647;-82
2023/04/10 03:03:58;;;;;;;24.80;18.92;;;;;;;6.26;62.73;99774.06;4480188;31;33532;-82
2023/04/10 03:06:26;;;;;;;24.65;19.00;;;;;;;5.98;63.53;99773.78;4481490;31;33793;-83
2023/04/10 03:08:55;;;;;;;28.80;21.75;;;;;;;6.05;63.43;99768.06;4481060;32;32713;-83
2023/04/10 03:11:22;;;;;;;25.30;19.70;;;;;;;6.00;63.67;99769.56;4482359;31;33683;-82
2023/04/10 03:13:50;;;;;;;27.00;18.10;;;;;;;6.11;63.61;99770.88;4482607;31;34407;-83
2023/04/10 03:16:18;;;;;;;26.42;19.83;;;;;;;6.07;63.89;99764.75;4489324;31;33417;-82
2023/04/10 03:18:45;;;;;;;24.87;18.17;;;;;;;6.25;63.25;99772.31;4482339;31;34931;-82
2023/04/10 03:21:13;;;;;;;26.12;17.73;;;;;;;6.02;63.81;99767.91;4494198;31;34525;-82
2023/04/10 03:23:41;;;;;;;23.35;18.27;;;;;;;6.16;63.34;99766.78;4483651;31;33515;-82
2023/04/10 03:26:10;;;;;;;23.95;16.60;;;;;;;6.22;63.03;99764.47;4482716;31;34703;-82
2023/04/10 03:28:38;;;;;;;26.12;19.08;;;;;;;6.44;62.19;99760.13;4483075;31;34128;-82
2023/04/10 03:31:09;;;;;;;26.85;19.70;;;;;;;6.34;61.96;99757.22;4482935;31;34533;-82
2023/04/10 03:33:38;;;;;;;24.12;18.27;;;;;;;6.16;62.46;99759.06;4482646;31;33495;-82
2023/04/10 03:36:06;;;;;;;25.83;18.58;;;;;;;6.25;62.22;99759.44;4482627;31;33538;-82
2023/04/10 03:38:34;;;;;;;23.60;18.80;;;;;;;6.21;62.34;99764.37;4482458;31;33743;-82
2023/04/10 03:41:02;;;;;;;23.30;15.93;;;;;;;6.13;62.41;99760.62;4471612;31;34200;-82
2023/04/10 03:43:30;;;;;;;21.77;17.20;;;;;;;6.30;62.11;99757.03;4482336;32;33508;-82
2023/04/10 03:45:57;;;;;;;23.42;16.00;;;;;;;6.36;61.46;99766.69;4480949;32;33858;-82
2023/04/10 03:48:27;;;;;;;23.65;18.15;;;;;;;6.34;61.43;99767.53;4481706;32;35222;-82
2023/04/10 03:50:55;;;;;;;21.52;16.20;;;;;;;6.21;61.66;99764.37;4488550;31;33954;-82
2023/04/10 03:53:23;;;;;;;26.00;19.15;;;;;;;6.04;61.74;99771.44;4482369;31;34296;-82
2023/04/10 03:55:51;;;;;;;23.60;16.15;;;;;;;5.92;62.53;99765.78;4483666;31;34497;-82
2023/04/10 03:58:20;;;;;;;22.70;18.20;;;;;;;6.10;62.06;99769.12;4482467;31;35010;-82
2023/04/10 04:00:47;;;;;;;23.58;17.92;;;;;;;6.06;61.96;99773.28;4482005;31;34388;-82
2023/04/10 04:03:16;;;;;;;26.12;19.12;;;;;;;6.15;61.77;99771.87;4493115;31;33932;-82
2023/04/10 04:05:46;;;;;;;25.98;17.45;;;;;;;6.00;62.32;99772.16;4480930;31;34719;-82
2023/04/10 04:08:16;;;;;;;27.48;20.50;;;;;;;6.05;62.50;99773.19;4482441;31;34228;-82
2023/04/10 04:10:48;;;;;;;27.35;19.02;;;;;;;5.98;63.03;99773.78;4480966;31;32212;-82
2023/04/10 04:13:16;;;;;;;29.45;19.65;;;;;;;5.87;63.83;99778.44;4481991;31;33896;-81
2023/04/10 04:15:46;;;;;;;28.17;19.52;;;;;;;5.93;63.57;99788.16;4483914;31;33874;-82
2023/04/10 04:18:14;;;;;;;28.17;20.55;;;;;;;5.93;63.75;99783.00;4479395;31;34248;-82
2023/04/10 04:20:42;;;;;;;30.77;20.12;;;;;;;5.88;63.73;99787.94;4481833;31;34526;-83
2023/04/10 04:23:09;;;;;;;30.95;20.73;;;;;;;5.84;64.31;99784.34;4484519;31;34110;-82
2023/04/10 04:25:37;;;;;;;29.77;21.80;;;;;;;5.74;65.77;99789.06;4486309;31;34627;-81
2023/04/10 04:28:07;;;;;;;33.13;24.02;;;;;;;5.84;65.07;99784.34;4480590;31;34245;-83
2023/04/10 04:30:34;;;;;;;30.05;19.67;;;;;;;5.67;66.46;99784.47;4482343;31;34664;-83
2023/04/10 04:33:03;;;;;;;31.60;22.48;;;;;;;5.88;65.71;99784.50;4483713;31;34399;-83
2023/04/10 04:35:31;;;;;;;29.25;22.40;;;;;;;5.90;65.08;99788.88;4483455;31;34936;-83
2023/04/10 04:37:59;;;;;;;32.05;23.98;;;;;;;6.01;64.31;99797.06;4480534;32;34089;-83
2023/04/10 04:40:27;;;;;;;31.65;21.60;;;;;;;5.49;67.57;99790.59;4479993;31;33919;-82
2023/04/10 04:42:55;;;;;;;30.48;19.83;;;;;;;6.02;65.96;99796.25;4487940;31;34418;-82
2023/04/10 04:45:23;;;;;;;30.88;23.05;;;;;;;6.33;64.81;99791.53;4484314;31;34619;-81
2023/04/10 04:47:53;;;;;;;33.10;20.73;;;;;;;6.45;64.14;99795.41;4480121;32;34012;-82
2023/04/10 04:50:21;;;;;;;30.10;21.92;;;;;;;6.58;64.12;99802.78;4484357;31;33964;-82
2023/04/10 04:52:49;;;;;;;30.48;21.80;;;;;;;6.71;63.86;99799.88;4486604;31;32532;-82
2023/04/10 04:55:17;;;;;;;30.83;23.10;;;;;;;6.90;63.03;99796.28;4481820;31;34502;-82
2023/04/10 04:57:46;;;;;;;29.42;21.90;;;;;;;7.05;62.72;99801.13;4481473;31;34868;-81
2023/04/10 05:00:16;;;;;;;30.17;21.87;;;;;;;7.37;61.79;99798.81;4479930;31;34308;-83
2023/04/10 05:02:45;;;;;;;30.67;22.62;;;;;;;7.19;62.02;99794.75;4495388;31;31817;-82
2023/04/10 05:05:12;;;;;;;29.25;22.52;;;;;;;7.31;61.82;99802.06;4486441;31;34439;-82
2023/04/10 05:07:40;;;;;;;26.50;20.42;;;;;;;7.64;61.28;99801.50;4481401;31;34191;-82
2023/04/10 05:10:08;;;;;;;27.75;21.20;;;;;;;7.69;60.82;99806.00;4488939;31;34091;-83
2023/04/10 05:12:36;;;;;;;27.35;20.20;;;;;;;7.62;61.02;99804.03;4482827;31;32999;-82
2023/04/10 05:15:05;;;;;;;29.08;21.60;;;;;;;7.88;60.49;99804.94;4494195;31;33702;-82
2023/04/10 05:17:33;;;;;;;32.15;23.45;;;;;;;8.01;60.36;99811.37;4480036;32;35000;-82
2023/04/10 05:20:01;;;;;;;30.60;21.37;;;;;;;7.81;60.82;99818.44;4481523;31;33598;-83
2023/04/10 05:22:34;;;;;;;34.22;23.90;;;;;;;8.18;60.03;99809.31;4486659;31;33866;-82
2023/04/10 05:25:04;;;;;;;30.85;22.50;;;;;;;8.27;59.82;99807.94;4483271;31;33966;-83
2023/04/10 05:27:33;;;;;;;30.73;22.33;;;;;;;8.44;59.94;99815.38;4469666;32;33355;-82
2023/04/10 05:30:02;;;;;;;29.40;21.65;;;;;;;8.62;58.52;99810.78;4487914;31;33658;-83
2023/04/10 05:32:31;;;;;;;30.37;21.95;;;;;;;8.63;59.09;99809.94;4481628;32;33500;-82
2023/04/10 05:34:59;;;;;;;33.05;22.13;;;;;;;7.92;60.90;99818.81;4483822;31;33416;-82
2023/04/10 05:37:27;;;;;;;33.90;23.20;;;;;;;8.42;60.48;99815.31;4483294;31;34010;-82
2023/04/10 05:39:55;;;;;;;34.45;23.83;;;;;;;8.40;60.32;99816.97;4482054;32;34132;-82
2023/04/10 05:42:23;;;;;;;33.55;22.58;;;;;;;8.41;60.18;99828.19;4482967;31;34204;-82
2023/04/10 05:44:51;;;;;;;33.45;23.48;;;;;;;8.28;60.60;99817.41;4487984;31;33979;-82
2023/04/10 05:47:20;;;;;;;31.70;23.20;;;;;;;8.74;59.35;99823.19;4481799;31;33577;-83
2023/04/10 05:49:48;;;;;;;33.22;23.95;;;;;;;8.60;59.86;99822.78;4481910;32;34157;-83
2023/04/10 05:52:18;;;;;;;31.17;22.17;;;;;;;8.87;59.15;99816.69;4481041;31;33218;-82
2023/04/10 05:54:46;;;;;;;32.05;22.33;;;;;;;8.66;59.53;99817.78;4484733;31;33844;-81
2023/04/10 05:57:14;;;;;;;32.50;22.52;;;;;;;8.34;60.99;99821.94;4481898;32;33568;-83
2023/04/10 05:59:42;;;;;;;31.25;23.50;;;;;;;8.36;61.33;99819.38;4481598;31;33660;-82
2023/04/10 06:02:10;;;;;;;31.83;22.85;;;;;;;8.65;60.28;99817.75;4487115;31;34291;-82
2023/04/10 06:04:39;;;;;;;31.42;23.92;;;;;;;9.01;59.51;99812.78;4483951;31;34956;-83
2023/04/10 06:07:07;;;;;;;30.00;22.33;;;;;;;8.98;59.53;99817.91;4481698;32;33584;-83
2023/04/10 06:09:34;;;;;;;30.30;21.40;;;;;;;8.79;59.89;99816.47;4483215;31;34222;-82
2023/04/10 06:12:04;;;;;;;30.02;21.42;;;;;;;8.95;60.07;99822.97;4494195;31;34844;-82
2023/04/10 06:14:32;;;;;;;30.70;20.90;;;;;;;9.43;58.56;99822.59;4485573;31;33620;-83
2023/04/10 06:17:00;;;;;;;30.30;21.17;;;;;;;9.09;58.93;99820.78;4489685;31;34029;-83
2023/04/10 06:19:28;;;;;;;31.37;21.85;;;;;;;9.48;57.83;99821.03;4488083;31;33678;-83
2023/04/10 06:21:56;;;;;;;30.83;21.65;;;;;;;9.48;58.25;99824.50;4485640;31;33199;-84
2023/04/10 06:24:23;;;;;;;28.15;20.27;;;;;;;9.54;58.47;99826.37;4487581;31;34053;-83
2023/04/10 06:26:51;;;;;;;31.52;21.85;;;;;;;9.53;57.45;99823.75;4481295;31;34992;-83
2023/04/10 06:29:18;;;;;;;28.85;20.58;;;;;;;9.29;59.01;99823.94;4482696;31;34150;-83
2023/04/10 06:31:46;;;;;;;29.42;20.92;;;;;;;9.61;58.37;99823.13;4482533;31;33665;-84
2023/04/10 06:34:15;;;;;;;26.00;18.42;;;;;;;9.65;58.26;99816.31;4486217;31;34016;-83
2023/04/10 06:36:46;;;;;;;27.83;20.12;;;;;;;9.87;56.63;99821.22;4482884;31;34173;-82
2023/04/10 06:39:13;;;;;;;29.27;20.83;;;;;;;9.88;57.40;99816.91;4482990;31;34706;-83
2023/04/10 06:41:41;;;;;;;30.75;20.02;;;;;;;9.92;58.26;99818.75;4482970;31;33692;-82
2023/04/10 06:44:12;;;;;;;26.73;18.80;;;;;;;9.58;57.81;99823.03;4489458;31;33561;-83
2023/04/10 06:46:39;;;;;;;24.15;18.35;;;;;;;10.05;56.82;99818.22;4493940;31;34245;-83
2023/04/10 06:49:07;;;;;;;25.27;18.75;;;;;;;9.94;56.44;99814.50;4489885;31;34033;-83
2023/04/10 06:51:35;;;;;;;24.10;17.02;;;;;;;10.55;55.82;99818.59;4482932;31;33225;-83
2023/04/10 06:54:02;;;;;;;23.98;17.25;;;;;;;9.97;56.26;99812.00;4481056;31;33786;-82
2023/04/10 06:56:31;;;;;;;25.80;17.77;;;;;;;10.31;56.36;99812.84;4482540;31;33815;-83
2023/04/10 06:59:00;;;;;;;23.77;15.80;;;;;;;10.34;54.69;99812.91;4482763;31;34130;-83
2023/04/10 07:01:27;;;;;;;23.90;16.35;;;;;;;10.74;54.30;99819.03;4484684;31;33658;-83
2023/04/10 07:03:55;;;;;;;23.10;16.15;;;;;;;10.78;54.71;99807.88;4486826;31;34496;-83
2023/04/10 07:06:23;;;;;;;23.50;15.07;;;;;;;10.70;54.63;99812.91;4483038;31;34092;-83
2023/04/10 07:08:50;;;;;;;16.70;12.18;;;;;;;10.87;53.31;99814.16;4489024;31;34745;-83
2023/04/10 07:11:18;;;;;;;16.92;10.80;;;;;;;10.96;50.24;99816.06;4482362;31;33067;-83
2023/04/10 07:13:46;;;;;;;16.80;12.05;;;;;;;10.75;48.50;99813.00;4483381;31;33567;-83
2023/04/10 07:16:13;;;;;;;16.67;11.55;;;;;;;10.82;49.40;99815.75;4476741;31;33476;-83
2023/04/10 07:18:41;;;;;;;19.17;12.98;;;;;;;11.07;50.35;99809.38;4480647;31;34017;-83
2023/04/10 07:21:10;;;;;;;19.17;12.90;;;;;;;11.43;49.13;99808.38;4481612;32;33761;-83
2023/04/10 07:23:38;;;;;;;19.17;12.70;;;;;;;11.91;48.69;99810.16;4480516;32;33921;-82
2023/04/10 07:26:06;;;;;;;20.33;13.27;;;;;;;12.05;48.90;99800.91;4481508;32;33698;-83
2023/04/10 07:28:33;;;;;;;19.17;12.98;;;;;;;12.09;48.58;99800.09;4482405;32;33743;-83
2023/04/10 07:31:01;;;;;;;18.42;12.98;;;;;;;12.51;48.55;99808.56;4483344;31;33108;-83
2023/04/10 07:33:28;;;;;;;18.83;13.68;;;;;;;12.50;47.38;99805.09;4483453;31;34259;-82
2023/04/10 07:35:56;;;;;;;22.87;15.43;;;;;;;12.52;48.24;99811.16;4480181;31;32294;-81
2023/04/10 07:38:24;;;;;;;21.25;15.23;;;;;;;12.60;48.83;99806.94;4481411;32;33770;-82
2023/04/10 07:40:56;;;;;;;21.37;14.68;;;;;;;12.65;48.62;99804.41;4480199;31;33495;-82
2023/04/10 07:43:24;;;;;;;21.83;14.48;;;;;;;12.62;49.54;99804.38;4480128;31;33728;-83
2023/04/10 07:45:51;;;;;;;21.30;14.18;;;;;;;12.46;49.26;99799.78;4479982;32;34678;-82
2023/04/10 07:48:19;;;;;;;21.75;14.00;;;;;;;12.86;48.71;99798.66;4490609;31;33965;-84
2023/04/10 07:50:47;;;;;;;20.42;14.02;;;;;;;13.42;47.23;99795.91;4481249;32;33605;-81
2023/04/10 07:53:14;;;;;;;21.62;14.57;;;;;;;13.35;46.63;99792.38;4483297;31;33697;-82
2023/04/10 07:55:43;;;;;;;17.95;12.27;;;;;;;13.70;45.08;99791.00;4480969;32;34150;-81
2023/04/10 07:58:11;;;;;;;19.80;13.05;;;;;;;13.53;45.84;99783.88;4481775;32;33288;-83
2023/04/10 08:00:38;;;;;;;21.95;13.62;;;;;;;13.24;46.65;99786.16;4482344;32;33434;-83
2023/04/10 08:03:06;;;;;;;20.65;13.55;;;;;;;12.91;46.53;99783.97;4487156;31;34753;-82
2023/04/10 08:05:35;;;;;;;21.12;13.00;;;;;;;13.36;46.37;99782.81;4487663;31;36473;-83
2023/04/10 08:08:02;;;;;;;17.52;12.60;;;;;;;13.54;44.63;99780.41;4480638;31;34726;-82
2023/04/10 08:10:30;;;;;;;18.75;11.45;;;;;;;13.81;45.22;99774.59;4481967;31;32874;-83
2023/04/10 08:12:57;;;;;;;18.92;12.57;;;;;;;14.21;42.81;99779.31;4487714;31;34019;-83
2023/04/10 08:15:25;;;;;;;16.42;10.68;;;;;;;14.22;44.11;99781.03;4482284;31;34192;-83
2023/04/10 08:17:52;;;;;;;11.75;7.03;;;;;;;14.50;41.24;99771.69;4482085;31;33811;-82
2023/04/10 08:20:20;;;;;;;14.32;9.32;;;;;;;14.43;39.36;99767.25;4486804;31;34177;-82
2023/04/10 08:22:47;;;;;;;14.57;9.25;;;;;;;14.61;38.55;99759.59;4484538;31;34072;-82
2023/04/10 08:25:15;;;;;;;13.62;8.48;;;;;;;14.10;39.49;99766.19;4489932;31;33828;-83
2023/04/10 08:27:43;;;;;;;14.00;8.18;;;;;;;14.26;38.53;99765.41;4483784;31;33743;-83
2023/04/10 08:30:10;;;;;;;15.07;9.95;;;;;;;14.07;38.36;99761.81;4488772;31;33371;-83
2023/04/10 08:32:38;;;;;;;15.95;11.05;;;;;;;14.77;38.92;99756.22;4484420;31;34747;-84
2023/04/10 08:35:06;;;;;;;17.42;11.02;;;;;;;14.58;40.19;99759.56;4481734;31;34972;-83
2023/04/10 08:37:33;;;;;;;16.12;9.65;;;;;;;14.38;40.97;99762.03;4482221;31;34257;-84
2023/04/10 08:40:01;;;;;;;16.02;9.70;;;;;;;14.69;41.24;99759.63;4481757;31;34571;-82
2023/04/10 08:42:30;;;;;;;15.98;10.30;;;;;;;14.52;39.74;99757.81;4481637;31;34801;-82
2023/04/10 08:44:58;;;;;;;16.23;10.43;;;;;;;14.56;40.17;99751.75;4487255;31;34459;-82
2023/04/10 08:47:27;;;;;;;15.20;10.65;;;;;;;14.85;40.82;99751.03;4484457;31;34626;-83
2023/04/10 08:49:56;;;;;;;14.43;9.32;;;;;;;14.57;41.47;99748.25;4485163;31;33419;-83
2023/04/10 08:52:24;;;;;;;14.10;9.65;;;;;;;14.43;40.32;99755.09;4479550;31;34680;-82
2023/04/10 08:54:54;;;;;;;14.00;9.57;;;;;;;14.54;40.37;99752.59;4483878;32;33846;-81
2023/04/10 08:57:22;;;;;;;15.05;10.05;;;;;;;14.93;40.10;99759.78;4482202;31;33877;-83
2023/04/10 08:59:50;;;;;;;16.02;9.60;;;;;;;14.72;40.35;99754.44;4481750;32;34225;-84
2023/04/10 09:02:18;;;;;;;16.33;11.02;;;;;;;15.25;38.79;99754.66;4481293;31;34105;-82
2023/04/10 09:04:49;;;;;;;19.55;12.55;;;;;;;15.23;39.31;99747.72;4468736;32;34238;-82
2023/04/10 09:07:17;;;;;;;19.40;13.40;;;;;;;15.19;40.78;99748.53;4481748;32;34751;-84
2023/04/10 09:09:45;;;;;;;20.15;13.52;;;;;;;14.43;42.49;99762.91;4483105;32;33188;-84
2023/04/10 09:12:14;;;;;;;18.27;11.90;;;;;;;14.91;42.47;99756.28;4482690;32;34864;-83
2023/04/10 09:14:42;;;;;;;17.40;11.48;;;;;;;15.19;40.79;99745.94;4488944;31;34194;-83
2023/04/10 09:17:20;;;;;;;17.70;11.48;;;;;;;15.24;39.01;99741.63;4481000;32;34059;-83
2023/04/10 09:19:51;;;;;;;14.93;10.30;;;;;;;15.62;38.32;99739.09;4481113;31;33621;-84
2023/04/10 09:22:28;;;;;;;17.73;10.18;;;;;;;15.27;39.11;99732.06;4481015;32;33669;-84
2023/04/10 09:24:58;;;;;;;17.20;11.00;;;;;;;15.36;38.87;99738.16;4483067;31;33873;-84
2023/04/10 09:27:36;;;;;;;17.12;11.20;;;;;;;15.61;36.23;99731.22;4483480;31;33957;-83
2023/04/10 09:30:07;;;;;;;14.57;9.77;;;;;;;15.36;38.33;99736.41;4481306;32;32480;-84
2023/04/10 09:32:36;;;;;;;14.73;9.70;;;;;;;15.68;37.81;99725.16;4481597;32;33795;-83
2023/04/10 09:35:04;;;;;;;14.15;9.90;;;;;;;15.94;38.48;99731.28;4482748;32;33821;-84
2023/04/10 09:37:33;;;;;;;15.40;10.25;;;;;;;15.97;36.56;99722.56;4482802;32;34477;-84
2023/04/10 09:40:01;;;;;;;13.18;9.00;;;;;;;16.21;35.56;99729.53;4481500;31;33338;-84
2023/04/10 09:42:32;;;;;;;16.00;10.55;;;;;;;15.92;35.77;99722.59;4483343;32;33726;-84
2023/04/10 09:45:00;;;;;;;16.02;9.95;;;;;;;16.07;36.85;99713.00;4481205;32;33843;-84
2023/04/10 09:47:28;;;;;;;15.43;10.15;;;;;;;16.09;36.05;99713.84;4481914;31;33589;-84
2023/04/10 09:49:59;;;;;;;15.57;9.98;;;;;;;15.74;35.67;99712.13;4481959;31;33302;-84
2023/04/10 09:52:27;;;;;;;13.25;8.88;;;;;;;16.25;34.55;99718.19;4483977;31;33560;-84
2023/04/10 09:55:00;;;;;;;12.75;9.32;;;;;;;16.24;35.08;99719.06;4483168;31;34889;-84
2023/04/10 09:57:29;;;;;;;16.73;10.18;;;;;;;15.68;35.83;99706.88;4480943;32;34066;-84
2023/04/10 10:00:07;;;;;;;17.35;10.65;;;;;;;15.87;35.34;99705.13;4483323;31;33335;-83
2023/04/10 10:02:40;;;;;;;14.50;9.15;;;;;;;15.68;36.89;99702.53;4483223;31;34035;-87
2023/04/10 10:05:08;;;;;;;13.62;8.93;;;;;;;15.93;35.94;99697.31;4480204;31;33988;-85
2023/04/10 10:07:37;;;;;;;12.68;8.40;;;;;;;16.29;35.69;99702.50;4489437;31;33908;-85
2023/04/10 10:10:07;;;;;;;12.35;8.40;;;;;;;16.03;36.46;99702.53;4485121;31;34633;-83
2023/04/10 10:12:36;;;;;;;12.32;7.55;;;;;;;16.07;35.80;99697.31;4488735;31;33539;-84
2023/04/10 10:15:13;;;;;;;12.80;8.23;;;;;;;15.98;35.11;99695.53;4484745;31;34264;-83
2023/04/10 10:18:24;;;;;;;11.95;8.32;;;;;;;16.66;33.17;99693.66;4481273;31;35014;-84
2023/04/10 10:20:52;;;;;;;13.45;8.45;;;;;;;16.69;32.90;99688.44;4472347;31;34469;-84
2023/04/10 10:23:21;;;;;;;10.90;7.68;;;;;;;15.63;34.50;99690.28;4473860;31;33213;-83
2023/04/10 10:25:49;;;;;;;11.55;7.32;;;;;;;15.69;36.03;99688.59;4481401;32;34236;-84
2023/04/10 10:28:18;;;;;;;12.37;7.55;;;;;;;16.16;35.75;99682.44;4482838;31;34625;-83
2023/04/10 10:30:46;;;;;;;11.88;7.72;;;;;;;15.76;34.53;99679.03;4481481;31;33315;-85
2023/04/10 10:33:14;;;;;;;15.40;8.13;;;;;;;15.64;34.25;99686.81;4481044;32;34159;-83
2023/04/10 10:35:43;;;;;;;10.55;7.50;;;;;;;15.88;34.35;99679.00;4468637;31;34308;-82
2023/04/10 10:38:11;;;;;;;12.45;7.68;;;;;;;15.48;35.60;99678.94;4481534;32;33824;-83
2023/04/10 10:40:59;;;;;;;11.93;8.10;;;;;;;15.64;34.52;99686.81;4480731;31;33559;-83
2023/04/10 10:43:46;;;;;;;12.40;8.43;;;;;;;15.41;34.53;99682.41;4480765;31;34015;-83
2023/04/10 10:46:20;;;;;;;12.73;9.38;;;;;;;15.70;34.60;99679.00;4483255;31;33996;-82
2023/04/10 10:48:57;;;;;;;14.95;9.18;;;;;;;15.21;35.85;99681.53;4482182;31;33978;-82
2023/04/10 10:51:48;;;;;;;14.35;8.55;;;;;;;15.26;36.18;99674.56;4483429;31;33283;-82
2023/04/10 10:54:34;;;;;;;13.40;7.55;;;;;;;15.28;35.58;99680.66;4482512;31;33854;-81
2023/04/10 10:57:46;;;;;;;11.75;7.75;;;;;;;15.26;35.85;99683.25;4482908;31;34766;-82
2023/04/10 11:00:15;;;;;;;14.82;8.48;;;;;;;15.52;34.99;99669.38;4487514;31;33661;-82
2023/04/10 11:02:42;;;;;;;12.90;8.35;;;;;;;15.48;37.12;99681.56;4480303;32;33666;-82
2023/04/10 11:05:49;;;;;;;13.13;8.13;;;;;;;15.24;38.50;99689.37;4492189;31;33477;-82
2023/04/10 11:08:18;;;;;;;13.07;8.90;;;;;;;15.51;36.78;99684.19;4484067;31;34741;-83
2023/04/10 11:11:04;;;;;;;13.50;8.75;;;;;;;15.19;41.21;99698.91;4481861;31;33913;-83
2023/04/10 11:13:37;;;;;;;14.65;9.90;;;;;;;14.88;39.92;99698.81;4485999;31;33473;-82
2023/04/10 11:16:06;;;;;;;12.45;8.75;;;;;;;15.55;37.37;99691.16;4480130;32;34661;-82
2023/04/10 11:18:43;;;;;;;12.70;8.13;;;;;;;15.56;37.21;99689.41;4485180;31;34863;-82
2023/04/10 11:21:18;;;;;;;12.48;8.27;;;;;;;15.02;37.20;99684.09;4484130;31;34900;-83
2023/04/10 11:23:49;;;;;;;12.13;7.40;;;;;;;15.39;39.28;99676.34;4488363;31;34133;-82
2023/04/10 11:26:38;;;;;;;12.02;8.48;;;;;;;15.82;35.98;99671.16;4484605;31;33657;-82
2023/04/10 11:29:26;;;;;;;12.25;7.93;;;;;;;15.53;37.52;99658.94;4481012;32;34625;-82
2023/04/10 11:31:53;;;;;;;13.15;8.15;;;;;;;15.51;35.75;99663.28;4483933;31;35119;-83
2023/04/10 11:34:21;;;;;;;11.90;8.10;;;;;;;15.23;37.49;99657.16;4483020;31;33485;-83
2023/04/10 11:36:49;;;;;;;13.05;8.15;;;;;;;15.58;38.74;99662.41;4485860;31;34929;-82